Aérodrome :
LOGIN :

S'inscrire | Disclaimer

   EN    FR    IT 

 










Légende :    VFR   VFR Marginal   IFR   IFR Intensif   IFR Très Intensif
Visi : 
Plafond : 
>= 8 km
>= 3000ft
5 à 8 km
1000 à 3000 ft
1500m à 5 km
500 à 1000 ft
800 à 1500m
200 à 500 ft
< 800m
< 200 ft
Symboles :   Orages  Brouillard  Fortes neiges  Fortes précipitations  Vent > 20 kt
SIGMETs :   Divers  Orages  Givrage  Turbulence  Onde Orograph.  Cendres Volcan.






- Altitude de l'aérodrome : 610 ft
- Code IATA : VXO


ESMX - Växjö Kronoberg

DERNIER METAR :
  • 211550Z 21012KT 9999 BKN022 05/03 Q1009

METARs EXPIRÉS :
  • 211520Z 21011KT 9999 BKN021 05/03 Q1009
  • 211450Z 23011KT 9999 -RA BKN023 05/02 Q1009
  • 211420Z 25012KT 9999 BKN025 06/01 Q1009
  • 211350Z 23012G23KT 200V260 9999 BKN022 06/02 Q1009
  • 211320Z 25013KT 220V280 9999 BKN026 06/02 Q1008

TAF TAF ESMX
Valide du 21 à 15h jusqu'au 21 à 22h UTC


211430Z 2115/2122 23014G25KT 9999 BKN020
BECMG 2118/2120 RA BKN012
PROB40 2120/2122 3000 -RA BKN006



MET'MAP, la Météo Aéronautique d'un coup d'oeil ! - Copyright ORBIFLY Décembre 2007 - Disclaimer

ORBIFLY MET'MAP TEAM :

Programmation & Développement : Alexandra Zaïnal
Sur une idée originale de : Baudouin d'Aumeries
Assistance à la programmation : Marc-Olivier Méhu
Soutien technique & logistique : Manuel Goepfert

Contact : metmap@orbifly.com




SOURCES & CREDITS :

   NOAA